sensor_id;sensor_type;location;lat;lon;timestamp;P1;durP1;ratioP1;P2;durP2;ratioP2
44139;SDS011;29803;51.048;4.686;2023-07-20T00:01:40;10.35;;;4.95;;
44139;SDS011;29803;51.048;4.686;2023-07-20T00:04:15;13.95;;;4.75;;
44139;SDS011;29803;51.048;4.686;2023-07-20T00:06:45;9.90;;;5.13;;
44139;SDS011;29803;51.048;4.686;2023-07-20T00:09:15;11.68;;;5.60;;
44139;SDS011;29803;51.048;4.686;2023-07-20T00:14:31;11.70;;;5.75;;
44139;SDS011;29803;51.048;4.686;2023-07-20T00:17:02;12.15;;;4.97;;
44139;SDS011;29803;51.048;4.686;2023-07-20T00:19:32;12.57;;;5.20;;
44139;SDS011;29803;51.048;4.686;2023-07-20T00:22:02;11.13;;;4.93;;
44139;SDS011;29803;51.048;4.686;2023-07-20T00:24:34;14.55;;;5.15;;
44139;SDS011;29803;51.048;4.686;2023-07-20T00:27:04;10.43;;;4.82;;
44139;SDS011;29803;51.048;4.686;2023-07-20T00:29:35;13.90;;;4.90;;
44139;SDS011;29803;51.048;4.686;2023-07-20T00:32:05;20.40;;;5.47;;
44139;SDS011;29803;51.048;4.686;2023-07-20T00:34:36;11.23;;;4.60;;
44139;SDS011;29803;51.048;4.686;2023-07-20T00:37:06;18.85;;;5.50;;
44139;SDS011;29803;51.048;4.686;2023-07-20T00:39:36;11.65;;;4.57;;
44139;SDS011;29803;51.048;4.686;2023-07-20T00:42:07;15.05;;;5.38;;
44139;SDS011;29803;51.048;4.686;2023-07-20T00:44:37;11.85;;;4.30;;
44139;SDS011;29803;51.048;4.686;2023-07-20T00:47:07;17.40;;;4.50;;
44139;SDS011;29803;51.048;4.686;2023-07-20T00:49:38;15.27;;;4.40;;
44139;SDS011;29803;51.048;4.686;2023-07-20T00:52:09;11.60;;;4.90;;
44139;SDS011;29803;51.048;4.686;2023-07-20T00:54:41;13.40;;;4.75;;
44139;SDS011;29803;51.048;4.686;2023-07-20T00:57:11;14.70;;;5.07;;
44139;SDS011;29803;51.048;4.686;2023-07-20T00:59:44;16.70;;;4.53;;
44139;SDS011;29803;51.048;4.686;2023-07-20T01:02:14;13.73;;;5.20;;
44139;SDS011;29803;51.048;4.686;2023-07-20T01:04:44;26.30;;;6.43;;
44139;SDS011;29803;51.048;4.686;2023-07-20T01:10:16;12.20;;;4.82;;
44139;SDS011;29803;51.048;4.686;2023-07-20T01:15:20;9.30;;;4.53;;
44139;SDS011;29803;51.048;4.686;2023-07-20T01:17:50;9.02;;;4.78;;
44139;SDS011;29803;51.048;4.686;2023-07-20T01:20:20;10.63;;;5.00;;
44139;SDS011;29803;51.048;4.686;2023-07-20T01:30:52;11.32;;;5.35;;
44139;SDS011;29803;51.048;4.686;2023-07-20T01:33:25;12.80;;;5.15;;
44139;SDS011;29803;51.048;4.686;2023-07-20T01:35:56;13.82;;;5.07;;
44139;SDS011;29803;51.048;4.686;2023-07-20T01:38:27;10.70;;;5.57;;
44139;SDS011;29803;51.048;4.686;2023-07-20T01:40:58;14.13;;;5.15;;
44139;SDS011;29803;51.048;4.686;2023-07-20T01:43:29;15.45;;;5.22;;
44139;SDS011;29803;51.048;4.686;2023-07-20T01:45:59;17.10;;;6.30;;
44139;SDS011;29803;51.048;4.686;2023-07-20T01:48:30;16.73;;;5.43;;
44139;SDS011;29803;51.048;4.686;2023-07-20T01:51:01;14.05;;;4.53;;
44139;SDS011;29803;51.048;4.686;2023-07-20T01:53:31;15.48;;;4.80;;
44139;SDS011;29803;51.048;4.686;2023-07-20T01:56:01;12.02;;;5.57;;
44139;SDS011;29803;51.048;4.686;2023-07-20T01:58:32;12.70;;;5.15;;
44139;SDS011;29803;51.048;4.686;2023-07-20T02:01:02;12.40;;;5.38;;
44139;SDS011;29803;51.048;4.686;2023-07-20T02:03:33;14.35;;;5.85;;
44139;SDS011;29803;51.048;4.686;2023-07-20T02:06:03;13.27;;;5.30;;
44139;SDS011;29803;51.048;4.686;2023-07-20T02:08:33;13.55;;;5.82;;
44139;SDS011;29803;51.048;4.686;2023-07-20T02:11:04;18.52;;;6.07;;
44139;SDS011;29803;51.048;4.686;2023-07-20T02:13:35;17.60;;;6.20;;
44139;SDS011;29803;51.048;4.686;2023-07-20T02:16:05;14.30;;;5.88;;
44139;SDS011;29803;51.048;4.686;2023-07-20T02:18:35;14.30;;;5.40;;
44139;SDS011;29803;51.048;4.686;2023-07-20T02:21:06;17.65;;;6.35;;
44139;SDS011;29803;51.048;4.686;2023-07-20T02:23:37;15.85;;;5.63;;
44139;SDS011;29803;51.048;4.686;2023-07-20T02:26:07;10.95;;;5.78;;
44139;SDS011;29803;51.048;4.686;2023-07-20T02:28:37;11.65;;;5.47;;
44139;SDS011;29803;51.048;4.686;2023-07-20T02:31:07;13.77;;;5.45;;
44139;SDS011;29803;51.048;4.686;2023-07-20T02:33:38;14.68;;;5.72;;
44139;SDS011;29803;51.048;4.686;2023-07-20T02:36:08;12.18;;;5.30;;
44139;SDS011;29803;51.048;4.686;2023-07-20T02:38:38;9.38;;;5.20;;
44139;SDS011;29803;51.048;4.686;2023-07-20T02:41:09;12.60;;;6.60;;
44139;SDS011;29803;51.048;4.686;2023-07-20T02:43:39;14.25;;;5.30;;
44139;SDS011;29803;51.048;4.686;2023-07-20T02:46:09;12.68;;;6.07;;
44139;SDS011;29803;51.048;4.686;2023-07-20T02:48:39;12.35;;;5.57;;
44139;SDS011;29803;51.048;4.686;2023-07-20T02:51:10;21.25;;;7.22;;
44139;SDS011;29803;51.048;4.686;2023-07-20T02:53:41;21.30;;;7.03;;
44139;SDS011;29803;51.048;4.686;2023-07-20T02:56:11;18.08;;;6.75;;
44139;SDS011;29803;51.048;4.686;2023-07-20T02:58:42;15.20;;;7.30;;
44139;SDS011;29803;51.048;4.686;2023-07-20T03:01:13;15.57;;;6.57;;
44139;SDS011;29803;51.048;4.686;2023-07-20T03:03:45;14.95;;;6.57;;
44139;SDS011;29803;51.048;4.686;2023-07-20T03:06:16;16.58;;;7.38;;
44139;SDS011;29803;51.048;4.686;2023-07-20T03:08:47;15.50;;;6.35;;
44139;SDS011;29803;51.048;4.686;2023-07-20T03:11:19;25.95;;;8.82;;
44139;SDS011;29803;51.048;4.686;2023-07-20T03:13:49;18.17;;;6.93;;
44139;SDS011;29803;51.048;4.686;2023-07-20T03:16:19;24.63;;;8.32;;
44139;SDS011;29803;51.048;4.686;2023-07-20T03:18:50;18.67;;;7.35;;
44139;SDS011;29803;51.048;4.686;2023-07-20T03:21:21;14.65;;;7.20;;
44139;SDS011;29803;51.048;4.686;2023-07-20T03:23:51;15.43;;;6.22;;
44139;SDS011;29803;51.048;4.686;2023-07-20T03:26:21;17.88;;;6.47;;
44139;SDS011;29803;51.048;4.686;2023-07-20T03:28:52;13.63;;;7.05;;
44139;SDS011;29803;51.048;4.686;2023-07-20T03:31:22;18.95;;;6.97;;
44139;SDS011;29803;51.048;4.686;2023-07-20T03:33:52;15.40;;;6.72;;
44139;SDS011;29803;51.048;4.686;2023-07-20T03:36:22;17.65;;;7.57;;
44139;SDS011;29803;51.048;4.686;2023-07-20T03:38:53;15.50;;;7.68;;
44139;SDS011;29803;51.048;4.686;2023-07-20T03:41:23;19.88;;;8.40;;
44139;SDS011;29803;51.048;4.686;2023-07-20T03:43:53;24.05;;;8.32;;
44139;SDS011;29803;51.048;4.686;2023-07-20T03:46:24;16.05;;;8.23;;
44139;SDS011;29803;51.048;4.686;2023-07-20T03:48:54;18.73;;;8.43;;
44139;SDS011;29803;51.048;4.686;2023-07-20T03:51:25;22.92;;;8.98;;
44139;SDS011;29803;51.048;4.686;2023-07-20T03:53:56;17.48;;;8.60;;
44139;SDS011;29803;51.048;4.686;2023-07-20T03:56:26;23.52;;;8.82;;
44139;SDS011;29803;51.048;4.686;2023-07-20T03:58:56;18.27;;;7.85;;
44139;SDS011;29803;51.048;4.686;2023-07-20T04:01:27;18.88;;;7.85;;
44139;SDS011;29803;51.048;4.686;2023-07-20T04:03:57;24.92;;;8.52;;
44139;SDS011;29803;51.048;4.686;2023-07-20T04:06:27;22.52;;;9.38;;
44139;SDS011;29803;51.048;4.686;2023-07-20T04:08:58;21.77;;;9.60;;
44139;SDS011;29803;51.048;4.686;2023-07-20T04:11:28;18.52;;;9.85;;
44139;SDS011;29803;51.048;4.686;2023-07-20T04:13:58;22.52;;;10.60;;
44139;SDS011;29803;51.048;4.686;2023-07-20T04:16:29;21.70;;;9.73;;
44139;SDS011;29803;51.048;4.686;2023-07-20T04:18:59;23.80;;;9.52;;
44139;SDS011;29803;51.048;4.686;2023-07-20T04:21:29;18.48;;;9.05;;
44139;SDS011;29803;51.048;4.686;2023-07-20T04:23:59;21.45;;;10.10;;
44139;SDS011;29803;51.048;4.686;2023-07-20T04:26:30;22.15;;;10.10;;
44139;SDS011;29803;51.048;4.686;2023-07-20T04:29:00;23.20;;;10.43;;
44139;SDS011;29803;51.048;4.686;2023-07-20T04:31:31;27.38;;;10.65;;
44139;SDS011;29803;51.048;4.686;2023-07-20T04:34:03;22.15;;;11.00;;
44139;SDS011;29803;51.048;4.686;2023-07-20T04:36:33;22.10;;;10.45;;
44139;SDS011;29803;51.048;4.686;2023-07-20T04:39:04;25.67;;;10.63;;
44139;SDS011;29803;51.048;4.686;2023-07-20T04:41:35;23.10;;;9.68;;
44139;SDS011;29803;51.048;4.686;2023-07-20T04:44:05;24.23;;;10.10;;
44139;SDS011;29803;51.048;4.686;2023-07-20T04:46:36;21.52;;;10.57;;
44139;SDS011;29803;51.048;4.686;2023-07-20T04:49:06;21.52;;;11.13;;
44139;SDS011;29803;51.048;4.686;2023-07-20T04:51:36;26.50;;;11.50;;
44139;SDS011;29803;51.048;4.686;2023-07-20T04:54:06;23.70;;;11.35;;
44139;SDS011;29803;51.048;4.686;2023-07-20T04:56:37;26.95;;;11.35;;
44139;SDS011;29803;51.048;4.686;2023-07-20T04:59:07;27.80;;;11.80;;
44139;SDS011;29803;51.048;4.686;2023-07-20T05:01:37;25.55;;;11.40;;
44139;SDS011;29803;51.048;4.686;2023-07-20T05:04:08;27.92;;;12.65;;
44139;SDS011;29803;51.048;4.686;2023-07-20T05:06:38;30.40;;;11.25;;
44139;SDS011;29803;51.048;4.686;2023-07-20T05:09:09;28.20;;;11.50;;
44139;SDS011;29803;51.048;4.686;2023-07-20T05:11:39;29.58;;;12.05;;
44139;SDS011;29803;51.048;4.686;2023-07-20T05:14:09;22.98;;;11.50;;
44139;SDS011;29803;51.048;4.686;2023-07-20T05:16:39;22.60;;;11.82;;
44139;SDS011;29803;51.048;4.686;2023-07-20T05:19:10;31.75;;;12.00;;
44139;SDS011;29803;51.048;4.686;2023-07-20T05:21:40;25.48;;;12.20;;
44139;SDS011;29803;51.048;4.686;2023-07-20T05:24:11;23.80;;;10.98;;
44139;SDS011;29803;51.048;4.686;2023-07-20T05:26:41;21.60;;;11.00;;
44139;SDS011;29803;51.048;4.686;2023-07-20T05:29:11;27.60;;;12.02;;
44139;SDS011;29803;51.048;4.686;2023-07-20T05:31:41;24.90;;;10.65;;
44139;SDS011;29803;51.048;4.686;2023-07-20T05:34:12;29.63;;;11.65;;
44139;SDS011;29803;51.048;4.686;2023-07-20T05:36:42;23.38;;;11.13;;
44139;SDS011;29803;51.048;4.686;2023-07-20T05:39:12;18.83;;;10.70;;
44139;SDS011;29803;51.048;4.686;2023-07-20T05:41:42;29.15;;;12.90;;
44139;SDS011;29803;51.048;4.686;2023-07-20T05:44:13;26.25;;;12.35;;
44139;SDS011;29803;51.048;4.686;2023-07-20T05:46:43;22.30;;;11.18;;
44139;SDS011;29803;51.048;4.686;2023-07-20T05:49:14;23.98;;;12.05;;
44139;SDS011;29803;51.048;4.686;2023-07-20T05:51:44;28.73;;;12.93;;
44139;SDS011;29803;51.048;4.686;2023-07-20T05:54:16;25.20;;;13.52;;
44139;SDS011;29803;51.048;4.686;2023-07-20T05:56:47;27.48;;;12.85;;
44139;SDS011;29803;51.048;4.686;2023-07-20T05:59:17;24.85;;;12.43;;
44139;SDS011;29803;51.048;4.686;2023-07-20T06:01:47;27.35;;;12.80;;
44139;SDS011;29803;51.048;4.686;2023-07-20T06:04:18;25.90;;;12.10;;
44139;SDS011;29803;51.048;4.686;2023-07-20T06:06:49;26.83;;;13.02;;
44139;SDS011;29803;51.048;4.686;2023-07-20T06:09:19;21.88;;;12.15;;
44139;SDS011;29803;51.048;4.686;2023-07-20T06:11:49;26.13;;;12.07;;
44139;SDS011;29803;51.048;4.686;2023-07-20T06:14:20;26.35;;;12.45;;
44139;SDS011;29803;51.048;4.686;2023-07-20T06:16:50;27.30;;;13.13;;
44139;SDS011;29803;51.048;4.686;2023-07-20T06:19:20;24.58;;;13.10;;
44139;SDS011;29803;51.048;4.686;2023-07-20T06:21:52;25.90;;;13.60;;
44139;SDS011;29803;51.048;4.686;2023-07-20T06:24:22;29.40;;;13.85;;
44139;SDS011;29803;51.048;4.686;2023-07-20T06:26:53;28.95;;;14.30;;
44139;SDS011;29803;51.048;4.686;2023-07-20T06:29:23;27.83;;;14.65;;
44139;SDS011;29803;51.048;4.686;2023-07-20T06:31:53;29.90;;;14.25;;
44139;SDS011;29803;51.048;4.686;2023-07-20T06:34:24;25.90;;;14.80;;
44139;SDS011;29803;51.048;4.686;2023-07-20T06:36:54;33.55;;;15.43;;
44139;SDS011;29803;51.048;4.686;2023-07-20T06:39:24;28.65;;;14.60;;
44139;SDS011;29803;51.048;4.686;2023-07-20T06:41:55;30.38;;;15.88;;
44139;SDS011;29803;51.048;4.686;2023-07-20T06:44:25;28.90;;;14.85;;
44139;SDS011;29803;51.048;4.686;2023-07-20T06:46:55;26.92;;;13.52;;
44139;SDS011;29803;51.048;4.686;2023-07-20T06:49:26;25.15;;;14.27;;
44139;SDS011;29803;51.048;4.686;2023-07-20T06:51:57;29.55;;;14.57;;
44139;SDS011;29803;51.048;4.686;2023-07-20T06:54:27;26.92;;;14.82;;
44139;SDS011;29803;51.048;4.686;2023-07-20T06:56:58;25.42;;;13.60;;
44139;SDS011;29803;51.048;4.686;2023-07-20T06:59:28;28.27;;;15.10;;
44139;SDS011;29803;51.048;4.686;2023-07-20T07:01:58;24.73;;;14.20;;
44139;SDS011;29803;51.048;4.686;2023-07-20T07:04:29;21.30;;;13.50;;
44139;SDS011;29803;51.048;4.686;2023-07-20T07:07:00;20.65;;;12.70;;
44139;SDS011;29803;51.048;4.686;2023-07-20T07:09:30;27.60;;;13.27;;
44139;SDS011;29803;51.048;4.686;2023-07-20T07:12:00;25.10;;;13.80;;
44139;SDS011;29803;51.048;4.686;2023-07-20T07:14:31;25.60;;;13.98;;
44139;SDS011;29803;51.048;4.686;2023-07-20T07:17:01;20.05;;;12.02;;
44139;SDS011;29803;51.048;4.686;2023-07-20T07:19:31;22.00;;;12.27;;
44139;SDS011;29803;51.048;4.686;2023-07-20T07:22:02;21.10;;;11.55;;
44139;SDS011;29803;51.048;4.686;2023-07-20T07:24:32;17.88;;;11.55;;
44139;SDS011;29803;51.048;4.686;2023-07-20T07:27:04;22.75;;;10.93;;
44139;SDS011;29803;51.048;4.686;2023-07-20T07:29:34;18.23;;;10.00;;
44139;SDS011;29803;51.048;4.686;2023-07-20T07:32:05;20.08;;;10.68;;
44139;SDS011;29803;51.048;4.686;2023-07-20T07:34:35;15.88;;;9.88;;
44139;SDS011;29803;51.048;4.686;2023-07-20T07:37:05;15.60;;;9.70;;
44139;SDS011;29803;51.048;4.686;2023-07-20T07:39:36;13.63;;;10.27;;
44139;SDS011;29803;51.048;4.686;2023-07-20T07:42:06;15.10;;;8.93;;
44139;SDS011;29803;51.048;4.686;2023-07-20T07:44:36;12.75;;;8.32;;
44139;SDS011;29803;51.048;4.686;2023-07-20T07:47:07;16.17;;;9.38;;
44139;SDS011;29803;51.048;4.686;2023-07-20T07:49:37;15.27;;;9.82;;
44139;SDS011;29803;51.048;4.686;2023-07-20T07:52:07;16.25;;;9.20;;
44139;SDS011;29803;51.048;4.686;2023-07-20T07:54:38;17.27;;;9.02;;
44139;SDS011;29803;51.048;4.686;2023-07-20T07:57:08;14.13;;;8.15;;
44139;SDS011;29803;51.048;4.686;2023-07-20T07:59:39;13.25;;;8.38;;
44139;SDS011;29803;51.048;4.686;2023-07-20T08:02:09;13.60;;;8.07;;
44139;SDS011;29803;51.048;4.686;2023-07-20T08:04:40;10.85;;;7.70;;
44139;SDS011;29803;51.048;4.686;2023-07-20T08:07:10;11.85;;;7.07;;
44139;SDS011;29803;51.048;4.686;2023-07-20T08:09:40;13.27;;;6.88;;
44139;SDS011;29803;51.048;4.686;2023-07-20T08:12:11;7.22;;;5.65;;
44139;SDS011;29803;51.048;4.686;2023-07-20T08:14:41;7.65;;;5.00;;
44139;SDS011;29803;51.048;4.686;2023-07-20T08:17:11;8.70;;;5.85;;
44139;SDS011;29803;51.048;4.686;2023-07-20T08:19:42;9.18;;;5.32;;
44139;SDS011;29803;51.048;4.686;2023-07-20T08:22:12;9.38;;;4.90;;
44139;SDS011;29803;51.048;4.686;2023-07-20T08:24:42;6.70;;;4.00;;
44139;SDS011;29803;51.048;4.686;2023-07-20T08:27:13;6.70;;;4.85;;
44139;SDS011;29803;51.048;4.686;2023-07-20T08:29:43;8.05;;;4.75;;
44139;SDS011;29803;51.048;4.686;2023-07-20T08:32:13;8.38;;;5.22;;
44139;SDS011;29803;51.048;4.686;2023-07-20T08:34:44;6.97;;;5.53;;
44139;SDS011;29803;51.048;4.686;2023-07-20T08:37:15;9.85;;;5.03;;
44139;SDS011;29803;51.048;4.686;2023-07-20T08:39:45;9.55;;;4.60;;
44139;SDS011;29803;51.048;4.686;2023-07-20T08:42:15;5.88;;;4.20;;
44139;SDS011;29803;51.048;4.686;2023-07-20T08:44:46;6.20;;;4.90;;
44139;SDS011;29803;51.048;4.686;2023-07-20T08:47:18;5.82;;;3.97;;
44139;SDS011;29803;51.048;4.686;2023-07-20T08:49:49;6.88;;;4.35;;
44139;SDS011;29803;51.048;4.686;2023-07-20T08:52:19;6.75;;;5.18;;
44139;SDS011;29803;51.048;4.686;2023-07-20T08:54:49;7.40;;;5.20;;
44139;SDS011;29803;51.048;4.686;2023-07-20T08:57:20;7.10;;;4.07;;
44139;SDS011;29803;51.048;4.686;2023-07-20T08:59:51;6.47;;;4.45;;
44139;SDS011;29803;51.048;4.686;2023-07-20T09:02:22;6.25;;;4.40;;
44139;SDS011;29803;51.048;4.686;2023-07-20T09:04:55;6.05;;;3.70;;
44139;SDS011;29803;51.048;4.686;2023-07-20T09:07:25;4.38;;;2.95;;
44139;SDS011;29803;51.048;4.686;2023-07-20T09:09:57;5.13;;;2.80;;
44139;SDS011;29803;51.048;4.686;2023-07-20T09:12:27;3.03;;;2.70;;
44139;SDS011;29803;51.048;4.686;2023-07-20T09:14:57;3.53;;;2.47;;
44139;SDS011;29803;51.048;4.686;2023-07-20T09:17:28;2.28;;;2.08;;
44139;SDS011;29803;51.048;4.686;2023-07-20T09:19:59;5.15;;;2.38;;
44139;SDS011;29803;51.048;4.686;2023-07-20T09:22:31;2.60;;;2.40;;
44139;SDS011;29803;51.048;4.686;2023-07-20T09:25:01;2.60;;;2.17;;
44139;SDS011;29803;51.048;4.686;2023-07-20T09:30:24;3.00;;;2.60;;
44139;SDS011;29803;51.048;4.686;2023-07-20T09:32:55;4.10;;;2.22;;
44139;SDS011;29803;51.048;4.686;2023-07-20T09:35:25;3.13;;;2.80;;
44139;SDS011;29803;51.048;4.686;2023-07-20T09:40:41;4.60;;;2.22;;
44139;SDS011;29803;51.048;4.686;2023-07-20T09:43:12;3.42;;;2.17;;
44139;SDS011;29803;51.048;4.686;2023-07-20T09:45:42;2.30;;;1.90;;
44139;SDS011;29803;51.048;4.686;2023-07-20T09:48:13;4.30;;;2.40;;
44139;SDS011;29803;51.048;4.686;2023-07-20T09:50:48;4.15;;;2.40;;
44139;SDS011;29803;51.048;4.686;2023-07-20T09:53:19;3.95;;;2.40;;
44139;SDS011;29803;51.048;4.686;2023-07-20T09:55:49;3.97;;;2.65;;
44139;SDS011;29803;51.048;4.686;2023-07-20T09:58:21;3.00;;;2.22;;
44139;SDS011;29803;51.048;4.686;2023-07-20T10:00:52;3.42;;;2.58;;
44139;SDS011;29803;51.048;4.686;2023-07-20T10:06:00;4.07;;;1.87;;
44139;SDS011;29803;51.048;4.686;2023-07-20T10:08:33;5.53;;;1.90;;
44139;SDS011;29803;51.048;4.686;2023-07-20T10:11:05;3.85;;;2.53;;
44139;SDS011;29803;51.048;4.686;2023-07-20T10:13:37;4.28;;;2.10;;
44139;SDS011;29803;51.048;4.686;2023-07-20T10:18:57;5.20;;;2.10;;
44139;SDS011;29803;51.048;4.686;2023-07-20T10:21:29;7.28;;;2.70;;
44139;SDS011;29803;51.048;4.686;2023-07-20T10:23:59;2.13;;;1.92;;
44139;SDS011;29803;51.048;4.686;2023-07-20T10:26:31;7.05;;;2.35;;
44139;SDS011;29803;51.048;4.686;2023-07-20T10:29:02;2.30;;;2.00;;
44139;SDS011;29803;51.048;4.686;2023-07-20T10:31:33;4.32;;;2.08;;
44139;SDS011;29803;51.048;4.686;2023-07-20T10:34:04;3.50;;;2.05;;
44139;SDS011;29803;51.048;4.686;2023-07-20T10:36:34;3.53;;;2.17;;
44139;SDS011;29803;51.048;4.686;2023-07-20T10:39:22;4.00;;;1.80;;
44139;SDS011;29803;51.048;4.686;2023-07-20T10:44:42;4.15;;;1.75;;
44139;SDS011;29803;51.048;4.686;2023-07-20T10:47:14;4.10;;;2.10;;
44139;SDS011;29803;51.048;4.686;2023-07-20T10:55:22;1.80;;;1.35;;
44139;SDS011;29803;51.048;4.686;2023-07-20T10:58:06;4.10;;;1.58;;
44139;SDS011;29803;51.048;4.686;2023-07-20T11:00:37;2.75;;;1.75;;
44139;SDS011;29803;51.048;4.686;2023-07-20T11:03:07;3.25;;;1.80;;
44139;SDS011;29803;51.048;4.686;2023-07-20T11:05:38;2.95;;;1.60;;
44139;SDS011;29803;51.048;4.686;2023-07-20T11:08:10;4.22;;;1.42;;
44139;SDS011;29803;51.048;4.686;2023-07-20T11:10:41;2.50;;;1.30;;
44139;SDS011;29803;51.048;4.686;2023-07-20T11:16:02;3.30;;;1.45;;
44139;SDS011;29803;51.048;4.686;2023-07-20T11:18:34;1.52;;;1.25;;
44139;SDS011;29803;51.048;4.686;2023-07-20T11:21:09;3.30;;;1.55;;
44139;SDS011;29803;51.048;4.686;2023-07-20T11:23:40;1.65;;;1.30;;
44139;SDS011;29803;51.048;4.686;2023-07-20T11:26:11;2.90;;;1.30;;
44139;SDS011;29803;51.048;4.686;2023-07-20T11:28:42;6.15;;;1.98;;
44139;SDS011;29803;51.048;4.686;2023-07-20T11:31:13;5.10;;;1.60;;
44139;SDS011;29803;51.048;4.686;2023-07-20T11:33:43;2.95;;;1.38;;
44139;SDS011;29803;51.048;4.686;2023-07-20T11:36:14;3.47;;;1.42;;
44139;SDS011;29803;51.048;4.686;2023-07-20T11:38:45;2.90;;;1.50;;
44139;SDS011;29803;51.048;4.686;2023-07-20T11:41:16;4.43;;;1.80;;
44139;SDS011;29803;51.048;4.686;2023-07-20T11:43:47;2.50;;;1.40;;
44139;SDS011;29803;51.048;4.686;2023-07-20T11:46:17;3.28;;;1.30;;
44139;SDS011;29803;51.048;4.686;2023-07-20T11:48:47;1.83;;;1.40;;
44139;SDS011;29803;51.048;4.686;2023-07-20T11:51:18;6.07;;;1.25;;
44139;SDS011;29803;51.048;4.686;2023-07-20T11:53:49;3.88;;;1.00;;
44139;SDS011;29803;51.048;4.686;2023-07-20T11:56:20;1.20;;;0.73;;
44139;SDS011;29803;51.048;4.686;2023-07-20T11:58:50;0.65;;;0.57;;
44139;SDS011;29803;51.048;4.686;2023-07-20T12:01:20;3.25;;;0.90;;
44139;SDS011;29803;51.048;4.686;2023-07-20T12:03:50;1.58;;;0.70;;
44139;SDS011;29803;51.048;4.686;2023-07-20T12:06:23;1.08;;;0.63;;
44139;SDS011;29803;51.048;4.686;2023-07-20T12:08:56;1.50;;;0.80;;
44139;SDS011;29803;51.048;4.686;2023-07-20T12:11:39;1.80;;;0.90;;
44139;SDS011;29803;51.048;4.686;2023-07-20T12:14:09;6.53;;;1.10;;
44139;SDS011;29803;51.048;4.686;2023-07-20T12:16:39;2.28;;;1.00;;
44139;SDS011;29803;51.048;4.686;2023-07-20T12:19:11;0.75;;;0.70;;
44139;SDS011;29803;51.048;4.686;2023-07-20T12:21:41;1.60;;;1.00;;
44139;SDS011;29803;51.048;4.686;2023-07-20T12:24:12;1.85;;;1.30;;
44139;SDS011;29803;51.048;4.686;2023-07-20T12:26:42;4.47;;;1.13;;
44139;SDS011;29803;51.048;4.686;2023-07-20T12:29:13;1.55;;;1.10;;
44139;SDS011;29803;51.048;4.686;2023-07-20T12:31:44;1.15;;;0.90;;
44139;SDS011;29803;51.048;4.686;2023-07-20T12:34:14;2.40;;;1.02;;
44139;SDS011;29803;51.048;4.686;2023-07-20T12:36:45;2.40;;;1.10;;
44139;SDS011;29803;51.048;4.686;2023-07-20T12:39:15;1.63;;;1.00;;
44139;SDS011;29803;51.048;4.686;2023-07-20T12:41:45;3.22;;;0.93;;
44139;SDS011;29803;51.048;4.686;2023-07-20T12:44:16;1.35;;;0.90;;
44139;SDS011;29803;51.048;4.686;2023-07-20T12:46:46;2.22;;;0.80;;
44139;SDS011;29803;51.048;4.686;2023-07-20T12:49:17;1.65;;;0.80;;
44139;SDS011;29803;51.048;4.686;2023-07-20T12:51:47;1.33;;;0.60;;
44139;SDS011;29803;51.048;4.686;2023-07-20T12:54:17;1.13;;;0.68;;
44139;SDS011;29803;51.048;4.686;2023-07-20T12:56:48;2.28;;;0.73;;
44139;SDS011;29803;51.048;4.686;2023-07-20T12:59:18;1.48;;;0.70;;
44139;SDS011;29803;51.048;4.686;2023-07-20T13:01:48;1.33;;;0.90;;
44139;SDS011;29803;51.048;4.686;2023-07-20T13:04:19;1.67;;;0.80;;
44139;SDS011;29803;51.048;4.686;2023-07-20T13:06:49;3.05;;;1.17;;
44139;SDS011;29803;51.048;4.686;2023-07-20T13:09:19;1.90;;;1.00;;
44139;SDS011;29803;51.048;4.686;2023-07-20T13:11:49;1.20;;;0.80;;
44139;SDS011;29803;51.048;4.686;2023-07-20T13:14:20;1.25;;;0.80;;
44139;SDS011;29803;51.048;4.686;2023-07-20T13:16:50;2.13;;;0.90;;
44139;SDS011;29803;51.048;4.686;2023-07-20T13:19:20;2.13;;;0.77;;
44139;SDS011;29803;51.048;4.686;2023-07-20T13:21:51;1.38;;;0.80;;
44139;SDS011;29803;51.048;4.686;2023-07-20T13:24:21;4.35;;;0.70;;
44139;SDS011;29803;51.048;4.686;2023-07-20T13:26:51;6.10;;;1.20;;
44139;SDS011;29803;51.048;4.686;2023-07-20T13:29:22;3.05;;;1.02;;
44139;SDS011;29803;51.048;4.686;2023-07-20T13:31:52;1.33;;;0.70;;
44139;SDS011;29803;51.048;4.686;2023-07-20T13:34:23;1.75;;;0.90;;
44139;SDS011;29803;51.048;4.686;2023-07-20T13:36:54;2.10;;;1.05;;
44139;SDS011;29803;51.048;4.686;2023-07-20T13:39:24;2.65;;;0.90;;
44139;SDS011;29803;51.048;4.686;2023-07-20T13:41:57;2.80;;;1.17;;
44139;SDS011;29803;51.048;4.686;2023-07-20T13:44:27;1.13;;;0.90;;
44139;SDS011;29803;51.048;4.686;2023-07-20T13:46:57;1.13;;;0.88;;
44139;SDS011;29803;51.048;4.686;2023-07-20T13:49:28;1.13;;;1.00;;
44139;SDS011;29803;51.048;4.686;2023-07-20T13:51:58;1.63;;;1.15;;
44139;SDS011;29803;51.048;4.686;2023-07-20T13:54:28;6.18;;;1.30;;
44139;SDS011;29803;51.048;4.686;2023-07-20T13:56:59;1.48;;;1.00;;
44139;SDS011;29803;51.048;4.686;2023-07-20T13:59:29;2.47;;;1.10;;
44139;SDS011;29803;51.048;4.686;2023-07-20T14:01:59;2.17;;;1.25;;
44139;SDS011;29803;51.048;4.686;2023-07-20T14:04:29;2.50;;;1.23;;
44139;SDS011;29803;51.048;4.686;2023-07-20T14:07:00;2.88;;;0.93;;
44139;SDS011;29803;51.048;4.686;2023-07-20T14:09:30;2.20;;;1.10;;
44139;SDS011;29803;51.048;4.686;2023-07-20T14:12:00;2.55;;;1.15;;
44139;SDS011;29803;51.048;4.686;2023-07-20T14:14:31;5.35;;;1.52;;
44139;SDS011;29803;51.048;4.686;2023-07-20T14:17:01;2.50;;;1.52;;
44139;SDS011;29803;51.048;4.686;2023-07-20T14:19:31;1.70;;;1.42;;
44139;SDS011;29803;51.048;4.686;2023-07-20T14:22:02;1.83;;;1.63;;
44139;SDS011;29803;51.048;4.686;2023-07-20T14:24:33;3.40;;;1.55;;
44139;SDS011;29803;51.048;4.686;2023-07-20T14:27:04;4.60;;;1.92;;
44139;SDS011;29803;51.048;4.686;2023-07-20T14:29:34;1.83;;;1.67;;
44139;SDS011;29803;51.048;4.686;2023-07-20T14:32:06;3.17;;;1.60;;
44139;SDS011;29803;51.048;4.686;2023-07-20T14:34:37;1.42;;;1.33;;
44139;SDS011;29803;51.048;4.686;2023-07-20T14:37:07;2.10;;;1.80;;
44139;SDS011;29803;51.048;4.686;2023-07-20T14:39:38;3.60;;;1.63;;
44139;SDS011;29803;51.048;4.686;2023-07-20T14:42:08;4.65;;;2.40;;
44139;SDS011;29803;51.048;4.686;2023-07-20T14:44:38;1.60;;;1.50;;
44139;SDS011;29803;51.048;4.686;2023-07-20T14:47:09;5.55;;;1.60;;
44139;SDS011;29803;51.048;4.686;2023-07-20T14:49:39;3.60;;;1.90;;
44139;SDS011;29803;51.048;4.686;2023-07-20T14:52:09;2.20;;;1.58;;
44139;SDS011;29803;51.048;4.686;2023-07-20T14:54:40;2.15;;;1.60;;
44139;SDS011;29803;51.048;4.686;2023-07-20T14:57:10;3.05;;;1.27;;
44139;SDS011;29803;51.048;4.686;2023-07-20T14:59:44;5.32;;;2.10;;
44139;SDS011;29803;51.048;4.686;2023-07-20T15:02:14;1.80;;;1.58;;
44139;SDS011;29803;51.048;4.686;2023-07-20T15:04:46;2.45;;;1.60;;
44139;SDS011;29803;51.048;4.686;2023-07-20T15:07:18;2.45;;;1.50;;
44139;SDS011;29803;51.048;4.686;2023-07-20T15:09:48;3.80;;;1.65;;
44139;SDS011;29803;51.048;4.686;2023-07-20T15:12:19;4.25;;;1.58;;
44139;SDS011;29803;51.048;4.686;2023-07-20T15:15:01;2.25;;;1.60;;
44139;SDS011;29803;51.048;4.686;2023-07-20T15:17:32;1.63;;;1.42;;
44139;SDS011;29803;51.048;4.686;2023-07-20T15:20:03;5.80;;;1.70;;
44139;SDS011;29803;51.048;4.686;2023-07-20T15:22:35;1.98;;;1.55;;
44139;SDS011;29803;51.048;4.686;2023-07-20T15:25:06;3.17;;;1.55;;
44139;SDS011;29803;51.048;4.686;2023-07-20T15:27:37;2.55;;;1.75;;
44139;SDS011;29803;51.048;4.686;2023-07-20T15:30:07;5.53;;;1.92;;
44139;SDS011;29803;51.048;4.686;2023-07-20T15:32:38;2.22;;;1.80;;
44139;SDS011;29803;51.048;4.686;2023-07-20T15:35:10;3.80;;;1.60;;
44139;SDS011;29803;51.048;4.686;2023-07-20T15:37:41;4.25;;;1.80;;